createdAt,value
2018-12-04T07:13:23.018Z,5.40
2018-12-04T07:19:26.477Z,5.10
2018-12-04T07:25:30.616Z,5.00
2018-12-04T07:31:34.909Z,4.90
2018-12-04T07:37:38.350Z,5.00
2018-12-04T07:43:41.842Z,5.10
2018-12-04T07:49:45.411Z,4.90
2018-12-04T07:55:48.851Z,5.00
2018-12-04T08:01:52.295Z,4.80
2018-12-04T08:07:55.725Z,4.80
2018-12-04T08:13:59.216Z,4.80
2018-12-04T08:20:02.671Z,4.80
2018-12-04T08:26:06.082Z,4.80
2018-12-04T08:32:09.999Z,4.90
2018-12-04T08:38:13.542Z,5.00
2018-12-04T08:44:16.994Z,5.10
2018-12-04T08:50:26.921Z,5.00
2018-12-04T08:56:30.330Z,5.20
2018-12-04T09:02:33.891Z,5.40
2018-12-04T09:08:37.314Z,5.50
2018-12-04T09:14:40.782Z,5.60
2018-12-04T09:20:44.224Z,5.80
2018-12-04T09:26:47.657Z,5.90
2018-12-04T09:32:51.194Z,6.00
2018-12-04T09:38:54.620Z,6.20
2018-12-04T09:44:58.074Z,6.30
2018-12-04T09:51:01.544Z,6.50
2018-12-04T09:57:04.964Z,6.60
2018-12-04T10:03:08.387Z,6.80
2018-12-04T10:09:11.811Z,6.90
2018-12-04T10:15:15.455Z,6.90
2018-12-04T10:21:18.889Z,7.00
2018-12-04T10:27:22.310Z,7.20
2018-12-04T10:33:25.731Z,7.30
2018-12-04T10:39:29.159Z,7.40
2018-12-04T10:45:32.598Z,7.50
2018-12-04T10:51:36.026Z,7.50
2018-12-04T10:57:39.490Z,7.60
2018-12-04T11:03:42.952Z,7.80
2018-12-04T11:09:46.423Z,7.90
2018-12-04T11:15:49.871Z,8.00
2018-12-04T11:21:53.308Z,8.00
2018-12-04T11:27:56.778Z,8.10
2018-12-04T11:34:01.006Z,8.20
2018-12-04T11:40:04.775Z,8.30
2018-12-04T11:46:08.220Z,8.40
2018-12-04T11:52:11.664Z,8.40
2018-12-04T11:58:15.232Z,8.50
2018-12-04T12:04:18.755Z,8.50
2018-12-04T12:10:22.205Z,8.50
2018-12-04T12:16:25.616Z,8.60
2018-12-04T12:22:29.179Z,8.70
2018-12-04T12:28:32.630Z,8.70
2018-12-04T12:34:36.049Z,8.80
2018-12-04T12:40:39.473Z,9.00
2018-12-04T12:46:43.326Z,9.10
2018-12-04T12:52:46.742Z,9.10
2018-12-04T12:58:50.186Z,9.30
2018-12-04T13:04:53.635Z,9.30
2018-12-04T13:10:57.050Z,9.40
2018-12-04T13:17:00.478Z,9.50
2018-12-04T13:23:03.932Z,9.60
2018-12-04T13:29:07.362Z,9.80
2018-12-04T13:35:10.798Z,9.80
2018-12-04T13:41:14.239Z,9.80
2018-12-04T13:47:18.002Z,9.70
2018-12-04T13:53:21.408Z,9.80
2018-12-04T13:59:24.865Z,9.80
2018-12-04T14:05:28.271Z,9.90
2018-12-04T14:11:31.717Z,9.70
2018-12-04T14:17:35.164Z,9.60
2018-12-04T14:23:38.588Z,9.60
2018-12-04T14:29:42.152Z,9.50
2018-12-04T14:35:45.773Z,9.50
2018-12-04T14:41:49.460Z,9.40
2018-12-04T14:47:53.115Z,9.30
2018-12-04T14:53:56.650Z,9.30
2018-12-04T15:00:00.107Z,9.20
2018-12-04T15:06:03.856Z,9.20
2018-12-04T15:12:07.392Z,9.20
2018-12-04T15:18:11.076Z,9.20
2018-12-04T15:24:14.642Z,9.20
2018-12-04T15:30:18.443Z,9.10
2018-12-04T15:36:21.978Z,9.10
2018-12-04T15:42:25.446Z,8.80
2018-12-04T15:48:28.997Z,8.70
2018-12-04T15:54:32.548Z,8.70
2018-12-04T16:00:36.070Z,8.80
2018-12-04T16:06:39.528Z,8.70
2018-12-04T16:12:42.979Z,8.70
2018-12-04T16:18:46.409Z,8.60
2018-12-04T16:24:49.992Z,8.50
2018-12-04T16:30:53.541Z,8.40
2018-12-04T16:43:10.314Z,8.20
2018-12-04T16:49:13.848Z,8.20
2018-12-04T16:55:17.314Z,8.00
2018-12-04T17:01:20.751Z,8.00
2018-12-04T17:07:24.208Z,8.00
2018-12-04T17:13:27.657Z,8.10
2018-12-04T17:19:31.124Z,8.00
2018-12-04T17:25:34.572Z,7.90
2018-12-04T17:31:38.037Z,8.00
2018-12-04T17:37:41.710Z,8.00
2018-12-04T17:43:45.207Z,7.90
2018-12-04T17:49:48.858Z,7.80
2018-12-04T17:55:52.998Z,7.70
2018-12-04T18:01:56.428Z,7.80
2018-12-04T18:08:00.002Z,7.80
2018-12-04T18:14:04.044Z,7.80
2018-12-04T18:20:08.036Z,7.80
2018-12-04T18:26:11.538Z,7.50
2018-12-04T18:32:15.012Z,7.60
2018-12-04T18:38:18.485Z,7.60
2018-12-04T18:44:22.067Z,7.60
2018-12-04T18:50:25.516Z,7.70
2018-12-04T18:56:29.787Z,7.60
2018-12-04T19:02:33.362Z,7.50
2018-12-04T19:08:42.218Z,7.50
2018-12-04T19:14:45.679Z,7.50
2018-12-04T19:20:49.783Z,7.50
2018-12-04T19:26:53.544Z,7.60
2018-12-04T19:32:57.203Z,7.50
2018-12-04T19:39:00.647Z,7.30
2018-12-04T19:45:04.359Z,7.20
2018-12-04T19:51:07.813Z,7.20
2018-12-04T19:57:11.351Z,7.20
2018-12-04T20:03:14.848Z,7.20
2018-12-04T20:09:18.279Z,7.20
2018-12-04T20:15:21.727Z,7.10
2018-12-04T20:21:25.149Z,7.10
2018-12-04T20:27:28.625Z,7.20
2018-12-04T20:33:32.129Z,7.20
2018-12-04T20:39:35.779Z,7.10
2018-12-04T20:45:39.408Z,7.10
2018-12-04T20:51:42.856Z,7.20
2018-12-04T20:57:46.320Z,7.20
2018-12-04T21:03:49.875Z,7.20
2018-12-04T21:09:53.708Z,7.00
2018-12-04T21:15:57.760Z,7.10
2018-12-04T21:22:01.474Z,7.00
2018-12-04T21:28:10.400Z,7.00
2018-12-04T21:34:19.416Z,6.80
2018-12-04T21:40:28.392Z,6.80
2018-12-04T21:46:37.016Z,7.00
2018-12-04T21:52:40.420Z,6.90
2018-12-04T21:58:44.050Z,6.80
2018-12-04T22:04:47.527Z,6.80
2018-12-04T22:10:50.972Z,6.80
2018-12-04T22:16:54.400Z,6.80
2018-12-04T22:22:57.814Z,6.70
2018-12-04T22:29:01.326Z,6.60
2018-12-04T22:35:04.982Z,6.50
2018-12-04T22:41:09.250Z,6.40
2018-12-04T22:47:12.666Z,6.30
2018-12-04T22:53:16.093Z,6.20
2018-12-04T22:59:19.747Z,6.30
2018-12-04T23:05:23.444Z,6.20
2018-12-04T23:11:27.164Z,6.20
2018-12-04T23:17:30.717Z,6.30
2018-12-04T23:23:34.144Z,6.30
2018-12-04T23:29:37.565Z,6.30
2018-12-04T23:35:41.661Z,6.30
2018-12-04T23:41:45.091Z,6.30
2018-12-04T23:47:48.562Z,6.30
2018-12-04T23:53:52.207Z,6.30
2018-12-04T23:59:55.629Z,6.30
